x

San Clemente Basin - 27nm Se Of San Clemente Is, Ca (46086) Wave Buoy

5:50am - Tue 28th Jul 2015 All times are PDT. -7 hours from GMT.

  • Sig Wave height 4.6ft
  • Swell Direction
  • Peak Period 17s
  • Average Period 7s
  • Wind
    7mph, 9mph gusts
  • Sea Temp 70°f
  • Air Temp 64°f
  • Sea Pressure 1012.2mb
  • San Clemente Basin - 27nm Se Of San Clemente Is, Ca
  • San Clemente Basin - 27nm Se Of San Clemente Is, Ca

More Historic Weather Station data

Upgrade to MSW Pro to gain access to the past 30 days of data for over 8000 Wavebouys and Weather Stations around the globe.

Join Pro

Comparision Forecast

View Surf forecast
   
Tue 07/28 5:50am 4.5ft 17s 7s 7 9 mph 1012.2mb 70f 64f
4:50am 4.5ft 17s 7s 9 11 mph 1012mb 70f 64f
3:50am 4.5ft 17s 7s 7 11 mph 1012.1mb 70f 65f
2:50am 4ft 17s 6s 9 11 mph 1012mb 70f 65f
1:50am 4.5ft 17s 7s 7 9 mph 1012.3mb 70f 66f
12:50am 4.5ft 17s 7s 11
mph
1012.6mb 70f 66f
Mon 07/27 11:50pm 4.5ft 17s 6s 11 13 mph 1012.8mb 70f 66f
10:50pm 4.5ft 17s 6s 13 16 mph 1012.8mb 70f 67f
9:50pm 4.5ft 17s 7s 13 16 mph 1012.6mb 70f 67f
8:50pm 4ft 17s 6s 9 11 mph 1012.2mb 70f 68f
7:50pm 3.5ft 17s 6s 13 18 mph 1011.7mb 70f 68f
6:50pm 4ft 19s 7s 11 13 mph 1011.5mb 70f 67f
5:50pm 3.5ft 19s 7s 11 13 mph 1011.3mb 70f 67f
4:50pm 3.5ft 17s 8s 11 16 mph 1011.8mb 70f 66f
3:50pm 3.5ft 15s 7s 9 11 mph 1012.4mb 70f 66f
2:50pm 4ft 19s 8s 9 13 mph 1012.9mb 70f 66f
1:50pm 3.5ft 19s 7s 9 11 mph 1013.3mb 70f 66f
12:50pm 4ft 15s 7s 7 9 mph 1013.7mb 70f 66f
11:50am 4ft 17s 7s 4 7 mph 1014mb 70f 66f
10:50am 4ft 19s 7s 4 7 mph 1014.3mb 70f 65f
9:50am 4.5ft 19s 6s 7 9 mph 1014.2mb 70f 65f
8:50am 4.5ft 17s 6s 7 9 mph 1014.2mb 70f 65f
7:50am 4.5ft 17s 6s 7 11 mph 1013.5mb 70f 65f
6:50am 4.5ft 17s 6s 9 13 mph 1013.5mb 70f 65f
5:50am 4.5ft 6s 6s 9 11 mph 1013.1mb 70f 64f
4:50am 4.5ft 7s 6s 11 13 mph 1012.9mb 70f 64f
3:50am 4.5ft 7s 6s 11 13 mph 1012.9mb 70f 64f
2:50am 5ft 7s 6s 9 13 mph 1013.1mb 70f 64f
1:50am 4.5ft 17s 6s 11 13 mph 1013.2mb 70f 65f
12:50am 4.5ft 17s 6s 11 16 mph 1013.6mb 70f 65f
Sun 07/26 11:50pm 4.5ft 7s 5s 11 16 mph 1014mb 70f 65f
10:50pm 5ft 6s 5s 11 16 mph 1014mb 70f 65f
9:50pm 5ft 6s 5s 16 20 mph 1013.5mb 70f 65f
8:50pm 5ft 7s 5s 18 22 mph 1013mb 70f 65f
7:50pm 5ft 17s 5s 20 25 mph 1012.5mb 70f 65f
6:50pm 5ft 14s 5s 22 27 mph 1012.4mb 70f 65f
5:50pm 5ft 15s 5s 20 25 mph 1012.6mb 70f 66f
4:50pm 5ft 7s 6s 20 25 mph 1012.8mb 70f 66f
3:50pm 5ft 17s 6s 18 22 mph 1013.2mb 70f 66f
2:50pm 5ft 16s 6s 16 20 mph 1014.1mb 70f 66f
1:50pm 5ft 15s 6s 16 20 mph 1014.6mb 70f 66f
12:50pm 4.5ft 17s 6s 16 18 mph 1015.1mb 70f 65f
11:50am 5ft 17s 6s 13 18 mph 1015.4mb 70f 65f
10:50am 5ft 16s 6s 13 16 mph 1015.5mb 70f 66f
9:50am 5ft 7s 6s 13 16 mph 1014.9mb 70f 66f
8:50am 5ft 15s 6s 16 20 mph 1014.2mb 70f 67f
7:50am 5ft 16s 6s 16 18 mph 1014mb 70f 67f
6:50am 5ft 15s 6s 16 18 mph 1013.7mb 70f 67f
5:50am 5ft 15s 6s 16 18 mph 1012.8mb 70f 67f
4:50am 4.5ft 16s 6s 16 20 mph 1012.1mb 70f 68f
3:50am 4.5ft 16s 6s 16 18 mph 1012mb 70f 68f
2:50am 4.5ft 15s 6s 13 16 mph 1012.4mb 70f 68f
1:50am 4.5ft 16s 6s 11 16 mph 1012.7mb 70f 68f
12:50am 4.5ft 14s 6s 11
mph
1013.1mb 70f 69f
Sat 07/25 11:50pm 4.5ft 16s 6s 11 13 mph 1013.4mb 70f 69f
10:50pm 4.5ft 15s 6s 11 16 mph 1013.5mb 71f 69f
9:50pm 4.5ft 14s 6s 11 13 mph 1013.4mb 71f 69f
8:50pm 4.5ft 19s 6s 13 16 mph 1012.7mb 71f 69f
7:50pm 4.5ft 16s 6s 13 16 mph 1012.6mb 71f 69f
6:50pm 4.5ft 15s 6s 13 16 mph 1012.8mb 71f 70f
5:50pm 4ft 16s 6s 13 16 mph 1012.9mb 71f 69f
4:50pm 4ft 19s 6s 13 16 mph 1013.5mb 71f 69f
3:50pm 3.5ft 17s 7s 13 16 mph 1014mb 71f 69f
2:50pm 3.5ft 15s 7s 13
mph
1014.9mb 71f 69f
1:50pm 3.5ft 15s 8s 11 13 mph 1015.4mb 72f 68f
12:50pm 3.5ft 16s 8s 9 11 mph 1016mb 72f 69f
11:50am 3.5ft 16s 8s 7 9 mph 1016.6mb 72f 68f
10:50am 3.5ft 14s 7s 4
mph
1016.9mb 72f 68f
9:50am 3.5ft 16s 7s 2 4 mph 1017mb 71f 69f
8:50am 3.5ft 16s 7s 4 7 mph 1016.9mb 70f 68f
7:50am 3.5ft 16s 7s 4 7 mph 1016.5mb 70f 67f
6:50am 3.5ft 14s 7s 2 4 mph 1016.3mb 70f 67f
5:50am 3.5ft 16s 7s 7
mph
1015.9mb 70f 67f
4:50am 3.5ft 16s 8s 4 7 mph 1015.7mb 70f 68f
3:50am 3.5ft 16s 7s 4 7 mph 1015.7mb 70f 68f
2:50am 3.5ft 16s 7s 2
mph
1016.1mb 70f 69f
1:50am 3ft 16s 7s 2
mph
1016.4mb 70f 69f
12:50am 3.5ft 14s 7s  -  2 mph 1016.8mb 70f 69f
Fri 07/24 11:50pm 3.5ft 16s 6s 4
mph
1017.2mb 70f 69f
10:50pm 3.5ft 16s 7s 7
mph
1017.1mb 70f 69f
9:50pm 3.5ft 14s 6s 9
mph
1016.8mb 70f 69f
8:50pm 3.5ft 17s 7s 11
mph
1016mb 71f 69f
7:50pm 3ft 14s 6s 11 13 mph 1015.7mb 71f 69f
6:50pm 3ft 15s 6s 11 13 mph 1015.8mb 71f 69f
5:50pm 3ft 14s 7s 11 16 mph 1015.8mb 71f 69f
4:50pm 3.5ft 14s 8s 11 13 mph 1015.9mb 72f 69f
3:50pm 2.5ft 14s 8s 11
mph
1016.4mb 72f 69f
2:50pm 3ft 15s 8s 9 11 mph 1016.9mb 72f 69f
1:50pm 2.5ft 17s 8s 4 7 mph 1017.4mb 72f 68f